createdAt,value
2018-07-02T00:00:06.382Z,0.00
2018-07-02T00:01:06.554Z,0.00
2018-07-02T00:02:06.726Z,0.00
2018-07-02T00:03:06.906Z,0.00
2018-07-02T00:04:07.085Z,0.00
2018-07-02T00:05:07.268Z,0.00
2018-07-02T00:06:07.443Z,0.00
2018-07-02T00:07:07.619Z,0.00
2018-07-02T00:08:07.793Z,0.00
2018-07-02T00:09:07.967Z,0.00
2018-07-02T00:10:08.142Z,0.00
2018-07-02T00:11:08.314Z,0.00
2018-07-02T00:12:08.531Z,0.00
2018-07-02T00:13:08.709Z,0.00
2018-07-02T00:14:08.887Z,0.00
2018-07-02T00:15:09.058Z,0.00
2018-07-02T00:16:09.249Z,0.00
2018-07-02T00:17:09.404Z,0.00
2018-07-02T00:18:09.580Z,0.00
2018-07-02T00:19:10.095Z,0.00
2018-07-02T00:20:13.609Z,0.00
2018-07-02T00:21:12.940Z,0.00
2018-07-02T00:22:10.364Z,0.00
2018-07-02T00:23:10.648Z,0.00
2018-07-02T00:24:10.692Z,0.00
2018-07-02T00:25:10.849Z,0.00
2018-07-02T00:26:11.081Z,0.00
2018-07-02T00:27:13.217Z,0.00
2018-07-02T00:28:11.375Z,0.00
2018-07-02T00:29:11.348Z,0.00
2018-07-02T00:30:11.518Z,0.00
2018-07-02T00:31:11.706Z,0.00
2018-07-02T00:32:11.876Z,0.00
2018-07-02T00:33:12.045Z,0.00
2018-07-02T00:34:12.224Z,0.00
2018-07-02T00:35:12.395Z,0.00
2018-07-02T00:36:12.570Z,0.00
2018-07-02T00:37:12.742Z,0.00
2018-07-02T00:38:12.914Z,0.00
2018-07-02T00:39:13.091Z,0.00
2018-07-02T00:40:13.264Z,0.00
2018-07-02T00:41:13.442Z,0.00
2018-07-02T00:42:13.623Z,0.00
2018-07-02T00:43:13.804Z,0.00
2018-07-02T00:44:13.974Z,0.00
2018-07-02T00:45:14.149Z,0.00
2018-07-02T00:46:14.351Z,0.00
2018-07-02T00:47:14.540Z,0.00
2018-07-02T00:48:14.724Z,0.00
2018-07-02T00:49:14.905Z,0.00
2018-07-02T00:50:15.087Z,0.00
2018-07-02T00:51:15.269Z,0.00
2018-07-02T00:52:15.440Z,0.00
2018-07-02T00:53:15.623Z,0.00
2018-07-02T00:54:15.803Z,0.00
2018-07-02T00:55:15.979Z,0.00
2018-07-02T00:56:16.158Z,0.00
2018-07-02T00:57:16.328Z,0.00
2018-07-02T00:58:16.501Z,0.00
2018-07-02T00:59:16.681Z,0.00
2018-07-02T01:00:16.856Z,0.00
2018-07-02T01:01:17.027Z,0.00
2018-07-02T01:02:17.208Z,0.00
2018-07-02T01:03:17.379Z,0.00
2018-07-02T01:04:17.549Z,0.00
2018-07-02T01:05:17.723Z,0.00
2018-07-02T01:06:17.897Z,0.00
2018-07-02T01:07:18.079Z,0.00
2018-07-02T01:08:18.256Z,0.00
2018-07-02T01:09:18.427Z,0.00
2018-07-02T01:10:18.602Z,0.00
2018-07-02T01:11:18.781Z,0.00
2018-07-02T01:12:18.959Z,0.00
2018-07-02T01:13:19.133Z,0.00
2018-07-02T01:14:19.311Z,0.00
2018-07-02T01:15:19.486Z,0.00
2018-07-02T01:16:19.666Z,0.00
2018-07-02T01:17:19.845Z,0.00
2018-07-02T01:18:20.020Z,0.00
2018-07-02T01:19:20.197Z,0.00
2018-07-02T01:20:20.368Z,0.00
2018-07-02T01:21:20.541Z,0.00
2018-07-02T01:22:20.714Z,0.00
2018-07-02T01:23:20.888Z,0.00
2018-07-02T01:24:21.061Z,0.00
2018-07-02T01:25:21.243Z,0.00
2018-07-02T01:26:21.417Z,0.00
2018-07-02T01:27:21.599Z,0.00
2018-07-02T01:28:21.768Z,0.00
2018-07-02T01:29:21.945Z,0.00
2018-07-02T01:30:22.124Z,0.00
2018-07-02T01:31:22.297Z,0.00
2018-07-02T01:32:22.480Z,0.00
2018-07-02T01:33:22.660Z,0.00
2018-07-02T01:34:22.837Z,0.00
2018-07-02T01:35:23.006Z,0.00
2018-07-02T01:36:23.185Z,0.00
2018-07-02T01:37:23.360Z,0.00
2018-07-02T01:38:23.537Z,0.00
2018-07-02T01:39:23.714Z,0.00
2018-07-02T01:40:23.893Z,0.00
2018-07-02T01:41:24.071Z,0.00
2018-07-02T01:42:24.244Z,0.00
2018-07-02T01:43:24.411Z,0.00
2018-07-02T01:44:24.589Z,0.00
2018-07-02T01:45:24.763Z,0.00
2018-07-02T01:46:24.945Z,0.00
2018-07-02T01:47:25.126Z,0.00
2018-07-02T01:48:25.293Z,0.00
2018-07-02T01:49:25.469Z,0.00
2018-07-02T01:50:25.646Z,0.00
2018-07-02T01:51:25.822Z,0.00
2018-07-02T01:52:25.990Z,0.00
2018-07-02T01:53:26.159Z,0.00
2018-07-02T01:54:26.332Z,0.00
2018-07-02T01:55:26.512Z,0.00
2018-07-02T01:56:26.683Z,0.00
2018-07-02T01:57:26.864Z,0.00
2018-07-02T01:58:27.047Z,0.00
2018-07-02T01:59:27.212Z,0.00
2018-07-02T02:00:27.386Z,0.00
2018-07-02T02:01:27.561Z,0.00
2018-07-02T02:02:27.740Z,0.00
2018-07-02T02:03:27.911Z,0.00
2018-07-02T02:04:28.102Z,0.00
2018-07-02T02:05:28.275Z,0.00
2018-07-02T02:06:28.448Z,0.00
2018-07-02T02:07:28.623Z,0.00
2018-07-02T02:08:28.787Z,0.00
2018-07-02T02:09:28.963Z,0.00
2018-07-02T02:10:29.136Z,0.00
2018-07-02T02:11:29.309Z,0.00
2018-07-02T02:12:29.487Z,0.00
2018-07-02T02:13:29.662Z,0.00
2018-07-02T02:14:29.843Z,0.00
2018-07-02T02:15:30.020Z,0.00
2018-07-02T02:16:30.196Z,0.00
2018-07-02T02:17:30.370Z,0.00
2018-07-02T02:18:30.547Z,0.00
2018-07-02T02:19:30.725Z,0.00
2018-07-02T02:20:30.904Z,0.00
2018-07-02T02:21:31.078Z,0.00
2018-07-02T02:22:31.249Z,0.00
2018-07-02T02:23:31.429Z,0.00
2018-07-02T02:24:31.597Z,0.00
2018-07-02T02:25:31.770Z,0.00
2018-07-02T02:26:31.950Z,0.00
2018-07-02T02:27:32.131Z,0.00
2018-07-02T02:28:32.300Z,0.00
2018-07-02T02:29:32.473Z,0.00
2018-07-02T02:30:32.650Z,0.00
2018-07-02T02:31:32.821Z,0.00
2018-07-02T02:32:32.995Z,0.00
2018-07-02T02:33:33.169Z,4.00
2018-07-02T02:34:33.349Z,4.00
2018-07-02T02:35:33.513Z,0.00
2018-07-02T02:36:33.690Z,4.00
2018-07-02T02:37:33.859Z,4.00
2018-07-02T02:38:34.042Z,4.00
2018-07-02T02:39:34.205Z,4.00
2018-07-02T02:40:34.382Z,4.00
2018-07-02T02:41:34.560Z,4.00
2018-07-02T02:42:34.733Z,8.00
2018-07-02T02:43:34.914Z,4.00
2018-07-02T02:44:35.093Z,8.00
2018-07-02T02:45:35.270Z,8.00
2018-07-02T02:46:35.451Z,8.00
2018-07-02T02:47:35.621Z,8.00
2018-07-02T02:48:35.795Z,12.00
2018-07-02T02:49:35.973Z,12.00
2018-07-02T02:50:36.150Z,12.00
2018-07-02T02:51:36.323Z,16.00
2018-07-02T02:52:36.495Z,20.00
2018-07-02T02:53:36.669Z,24.00
2018-07-02T02:54:36.841Z,24.00
2018-07-02T02:55:37.012Z,28.00
2018-07-02T02:56:37.188Z,32.00
2018-07-02T02:57:37.365Z,32.00
2018-07-02T02:58:37.534Z,36.00
2018-07-02T02:59:37.712Z,40.00
2018-07-02T03:00:37.882Z,44.00
2018-07-02T03:01:38.055Z,52.00
2018-07-02T03:02:38.229Z,60.00
2018-07-02T03:03:38.398Z,60.00
2018-07-02T03:04:38.571Z,68.00
2018-07-02T03:05:38.742Z,76.00
2018-07-02T03:06:38.914Z,84.00
2018-07-02T03:07:39.083Z,88.00
2018-07-02T03:08:39.260Z,96.00
2018-07-02T03:09:39.520Z,104.00
2018-07-02T03:10:39.601Z,112.00
2018-07-02T03:11:39.774Z,120.00
2018-07-02T03:12:39.945Z,132.00
2018-07-02T03:13:40.128Z,140.00
2018-07-02T03:14:40.285Z,152.00
2018-07-02T03:15:40.468Z,160.00
2018-07-02T03:16:40.647Z,172.00
2018-07-02T03:17:40.835Z,184.00
2018-07-02T03:18:41.009Z,200.00
2018-07-02T03:19:41.181Z,208.00
2018-07-02T03:20:41.353Z,220.00
2018-07-02T03:21:41.525Z,236.00
2018-07-02T03:22:41.710Z,252.00
2018-07-02T03:23:41.884Z,264.00
2018-07-02T03:24:42.067Z,280.00
2018-07-02T03:25:42.239Z,296.00
2018-07-02T03:26:42.415Z,308.00
2018-07-02T03:27:42.593Z,324.00
2018-07-02T03:28:42.759Z,340.00
2018-07-02T03:29:42.936Z,352.00
2018-07-02T03:30:43.128Z,372.00
2018-07-02T03:31:43.300Z,388.00
2018-07-02T03:32:43.482Z,400.00
2018-07-02T03:33:43.656Z,416.00
2018-07-02T03:34:43.846Z,432.00
2018-07-02T03:35:44.018Z,448.00
2018-07-02T03:36:44.200Z,468.00
2018-07-02T03:37:44.373Z,484.00
2018-07-02T03:38:44.550Z,500.00
2018-07-02T03:39:44.719Z,520.00
2018-07-02T03:40:44.895Z,536.00
2018-07-02T03:41:45.071Z,552.00
2018-07-02T03:42:45.242Z,568.00
2018-07-02T03:43:45.413Z,584.00
2018-07-02T03:44:45.588Z,600.00
2018-07-02T03:45:45.772Z,620.00
2018-07-02T03:46:45.947Z,636.00
2018-07-02T03:47:46.114Z,652.00
2018-07-02T03:48:46.286Z,668.00
2018-07-02T03:49:46.462Z,684.00
2018-07-02T03:50:48.171Z,700.00
2018-07-02T03:51:48.678Z,720.00
2018-07-02T03:52:49.008Z,732.00
2018-07-02T03:53:49.416Z,752.00
2018-07-02T03:54:48.888Z,768.00
2018-07-02T03:55:48.305Z,780.00
2018-07-02T03:56:47.482Z,800.00
2018-07-02T03:57:51.143Z,812.00
2018-07-02T03:58:49.697Z,832.00
2018-07-02T03:59:49.202Z,848.00
2018-07-02T04:00:49.894Z,864.00
2018-07-02T04:01:53.896Z,880.00
2018-07-02T04:02:50.290Z,892.00
2018-07-02T04:03:48.653Z,908.00
2018-07-02T04:04:48.831Z,924.00
2018-07-02T04:05:49.008Z,940.00
2018-07-02T04:06:49.179Z,956.00
2018-07-02T04:07:49.346Z,972.00
2018-07-02T04:08:49.521Z,988.00
2018-07-02T04:09:49.692Z,1004.00
2018-07-02T04:10:49.869Z,1016.00
2018-07-02T04:11:50.045Z,1036.00
2018-07-02T04:12:50.359Z,1048.00
2018-07-02T04:13:50.363Z,1068.00
2018-07-02T04:14:50.540Z,1084.00
2018-07-02T04:15:50.710Z,1096.00
2018-07-02T04:16:50.897Z,1112.00
2018-07-02T04:17:51.076Z,1128.00
2018-07-02T04:18:51.829Z,1148.00
2018-07-02T04:19:51.394Z,1164.00
2018-07-02T04:20:51.648Z,1180.00
2018-07-02T04:21:51.701Z,1200.00
2018-07-02T04:22:51.873Z,1216.00
2018-07-02T04:23:52.108Z,1232.00
2018-07-02T04:24:52.273Z,1252.00
2018-07-02T04:25:52.483Z,1268.00
2018-07-02T04:26:52.623Z,1284.00
2018-07-02T04:27:52.813Z,1304.00
2018-07-02T04:28:52.976Z,1324.00
2018-07-02T04:29:53.161Z,1340.00
2018-07-02T04:30:53.346Z,1360.00
2018-07-02T04:31:53.529Z,1376.00
2018-07-02T04:32:53.696Z,1396.00
2018-07-02T04:33:53.879Z,1416.00
2018-07-02T04:34:54.049Z,1432.00
2018-07-02T04:35:54.224Z,1448.00
2018-07-02T04:36:54.395Z,1468.00
2018-07-02T04:37:54.571Z,1488.00
2018-07-02T04:38:54.752Z,1504.00
2018-07-02T04:39:54.929Z,1528.00
2018-07-02T04:40:55.116Z,1544.00
2018-07-02T04:41:55.291Z,1568.00
2018-07-02T04:42:55.482Z,1584.00
2018-07-02T04:43:55.660Z,1604.00
2018-07-02T04:44:55.840Z,1624.00
2018-07-02T04:45:56.019Z,1648.00
2018-07-02T04:46:56.249Z,1664.00
2018-07-02T04:47:56.326Z,1684.00
2018-07-02T04:48:56.517Z,1704.00
2018-07-02T04:49:56.719Z,1724.00
2018-07-02T04:50:56.894Z,1744.00
2018-07-02T04:51:57.881Z,1768.00
2018-07-02T04:52:59.260Z,1784.00
2018-07-02T04:53:58.919Z,1812.00
2018-07-02T04:54:59.795Z,1832.00
2018-07-02T04:55:59.883Z,1852.00
2018-07-02T04:56:57.915Z,1876.00
2018-07-02T04:58:00.604Z,1896.00
2018-07-02T04:58:58.995Z,1916.00
2018-07-02T04:59:59.102Z,1940.00
2018-07-02T05:00:59.954Z,1960.00
2018-07-02T05:01:58.851Z,1984.00
2018-07-02T05:02:59.071Z,2004.00
2018-07-02T05:03:59.161Z,2024.00
2018-07-02T05:04:59.377Z,2044.00
2018-07-02T05:05:59.575Z,2068.00
2018-07-02T05:06:59.821Z,2084.00
2018-07-02T05:07:59.882Z,2104.00
2018-07-02T05:09:00.084Z,2120.00
2018-07-02T05:10:00.390Z,2140.00
2018-07-02T05:11:00.456Z,2160.00
2018-07-02T05:12:00.651Z,2180.00
2018-07-02T05:13:00.862Z,2196.00
2018-07-02T05:14:01.760Z,2212.00
2018-07-02T05:15:01.103Z,2232.00
2018-07-02T05:16:01.343Z,2248.00
2018-07-02T05:17:01.608Z,2268.00
2018-07-02T05:18:01.573Z,2284.00
2018-07-02T05:19:03.304Z,2296.00
2018-07-02T05:20:02.208Z,2316.00
2018-07-02T05:21:02.309Z,2332.00
2018-07-02T05:22:02.377Z,2348.00
2018-07-02T05:23:02.594Z,2368.00
2018-07-02T05:24:02.674Z,2384.00
2018-07-02T05:25:02.853Z,2404.00
2018-07-02T05:26:03.034Z,2416.00
2018-07-02T05:27:03.298Z,2436.00
2018-07-02T05:28:03.371Z,2448.00
2018-07-02T05:29:03.578Z,2460.00
2018-07-02T05:30:03.644Z,2476.00
2018-07-02T05:31:03.827Z,2488.00
2018-07-02T05:32:03.990Z,2508.00
2018-07-02T05:33:04.168Z,2520.00
2018-07-02T05:34:04.336Z,2532.00
2018-07-02T05:35:04.528Z,2552.00
2018-07-02T05:36:05.064Z,2564.00
2018-07-02T05:37:05.003Z,2580.00
2018-07-02T05:38:05.060Z,2596.00
2018-07-02T05:39:05.230Z,2608.00
2018-07-02T05:40:05.428Z,2624.00
2018-07-02T05:41:05.583Z,2640.00
2018-07-02T05:42:05.790Z,2656.00
2018-07-02T05:43:05.969Z,2672.00
2018-07-02T05:44:06.144Z,2688.00
2018-07-02T05:45:06.337Z,2704.00
2018-07-02T05:46:06.508Z,2720.00
2018-07-02T05:47:06.685Z,2736.00
2018-07-02T05:48:06.864Z,2756.00
2018-07-02T05:49:07.066Z,2796.00
2018-07-02T05:50:07.298Z,2872.00
2018-07-02T05:51:07.488Z,2968.00
2018-07-02T05:52:07.800Z,3032.00
2018-07-02T05:53:07.864Z,3076.00
2018-07-02T05:54:08.032Z,3116.00
2018-07-02T05:55:08.212Z,3168.00
2018-07-02T05:56:08.389Z,3216.00
2018-07-02T05:57:08.565Z,3264.00
2018-07-02T05:58:08.742Z,3324.00
2018-07-02T05:59:08.913Z,3380.00
2018-07-02T06:00:09.139Z,3436.00
2018-07-02T06:01:09.272Z,3488.00
2018-07-02T06:02:09.451Z,3552.00
2018-07-02T06:03:09.624Z,3608.00
2018-07-02T06:04:09.831Z,3676.00
2018-07-02T06:05:10.018Z,3736.00
2018-07-02T06:06:10.199Z,3816.00
2018-07-02T06:07:10.414Z,3892.00
2018-07-02T06:08:10.646Z,3992.00
2018-07-02T06:09:10.781Z,4112.00
2018-07-02T06:10:10.961Z,4276.00
2018-07-02T06:11:11.132Z,4460.00
2018-07-02T06:12:11.312Z,4652.00
2018-07-02T06:13:11.501Z,4836.00
2018-07-02T06:14:11.669Z,5020.00
2018-07-02T06:15:11.844Z,5220.00
2018-07-02T06:16:12.025Z,5556.00
2018-07-02T06:17:12.207Z,6172.00
2018-07-02T06:18:12.387Z,10076.00
2018-07-02T06:19:12.568Z,42624.00
2018-07-02T06:20:12.780Z,85760.00
2018-07-02T06:21:12.974Z,112448.00
2018-07-02T06:22:13.164Z,116352.00
2018-07-02T06:23:13.340Z,117344.00
2018-07-02T06:24:13.519Z,118976.00
2018-07-02T06:25:13.705Z,118240.00
2018-07-02T06:26:13.882Z,120064.00
2018-07-02T06:27:14.060Z,116576.00
2018-07-02T06:28:14.246Z,112640.00
2018-07-02T06:29:14.427Z,115744.00
2018-07-02T06:30:14.628Z,117536.00
2018-07-02T06:31:14.807Z,120960.00
2018-07-02T06:32:14.990Z,119200.00
2018-07-02T06:33:15.180Z,116800.00
2018-07-02T06:34:15.358Z,116384.00
2018-07-02T06:35:15.548Z,114880.00
2018-07-02T06:36:16.829Z,113472.00
2018-07-02T06:37:15.921Z,112672.00
2018-07-02T06:38:16.097Z,112800.00
2018-07-02T06:39:16.286Z,111808.00
2018-07-02T06:40:16.479Z,112352.00
2018-07-02T06:41:16.658Z,112192.00
2018-07-02T06:42:16.933Z,113120.00
2018-07-02T06:43:16.985Z,113408.00
2018-07-02T06:44:17.173Z,95200.00
2018-07-02T06:45:17.355Z,112448.00
2018-07-02T06:46:17.540Z,112672.00
2018-07-02T06:47:17.724Z,115712.00
2018-07-02T06:48:17.907Z,118560.00
2018-07-02T06:49:18.096Z,116864.00
2018-07-02T06:50:18.287Z,117408.00
2018-07-02T06:51:18.474Z,116928.00
2018-07-02T06:52:18.667Z,115200.00
2018-07-02T06:53:18.855Z,114816.00
2018-07-02T06:54:19.047Z,112256.00
2018-07-02T06:55:19.232Z,115104.00
2018-07-02T06:56:19.426Z,117408.00
2018-07-02T06:57:19.614Z,117856.00
2018-07-02T06:58:19.803Z,118112.00
2018-07-02T06:59:19.990Z,117856.00
2018-07-02T07:00:20.181Z,117696.00
2018-07-02T07:01:20.384Z,116640.00
2018-07-02T07:02:20.705Z,115808.00
2018-07-02T07:03:20.822Z,115744.00
2018-07-02T07:04:23.796Z,116896.00
2018-07-02T07:05:22.761Z,117248.00
2018-07-02T07:06:24.080Z,114880.00
2018-07-02T07:07:23.111Z,114976.00
2018-07-02T07:08:25.448Z,118432.00
2018-07-02T07:09:24.518Z,118048.00
2018-07-02T07:10:21.937Z,118528.00
2018-07-02T07:11:22.125Z,120320.00
2018-07-02T07:12:22.320Z,119744.00
2018-07-02T07:13:22.648Z,118048.00
2018-07-02T07:14:22.771Z,117888.00
2018-07-02T07:15:22.837Z,116416.00
2018-07-02T07:16:23.028Z,115392.00
2018-07-02T07:17:23.220Z,117472.00
2018-07-02T07:18:23.414Z,118688.00
2018-07-02T07:19:23.610Z,118368.00
2018-07-02T07:20:23.938Z,117088.00
2018-07-02T07:21:24.069Z,117536.00
2018-07-02T07:22:24.273Z,118560.00
2018-07-02T07:23:24.339Z,118656.00
2018-07-02T07:24:24.530Z,120256.00
2018-07-02T07:25:24.715Z,120832.00
2018-07-02T07:26:24.906Z,120832.00
2018-07-02T07:27:25.097Z,121408.00
2018-07-02T07:28:25.298Z,121952.00
2018-07-02T07:29:25.515Z,120640.00
2018-07-02T07:30:26.010Z,119584.00
2018-07-02T07:31:25.850Z,118272.00
2018-07-02T07:32:26.043Z,119936.00
2018-07-02T07:33:26.227Z,120768.00
2018-07-02T07:34:26.413Z,121024.00
2018-07-02T07:35:26.610Z,120928.00
2018-07-02T07:36:26.815Z,118944.00
2018-07-02T07:37:27.065Z,117952.00
2018-07-02T07:38:27.240Z,116032.00
2018-07-02T07:39:27.444Z,115936.00
2018-07-02T07:40:27.639Z,112640.00
2018-07-02T07:41:27.830Z,112224.00
2018-07-02T07:42:28.021Z,112608.00
2018-07-02T07:43:28.208Z,112192.00
2018-07-02T07:44:28.408Z,113664.00
2018-07-02T07:45:28.596Z,115680.00
2018-07-02T07:46:28.785Z,116320.00
2018-07-02T07:47:28.987Z,116960.00
2018-07-02T07:48:29.161Z,118528.00
2018-07-02T07:49:29.355Z,116960.00
2018-07-02T07:50:29.547Z,117984.00
2018-07-02T07:51:29.756Z,118400.00
2018-07-02T07:52:29.940Z,119712.00
2018-07-02T07:53:30.135Z,116160.00
2018-07-02T07:54:30.408Z,116960.00
2018-07-02T07:55:30.473Z,119232.00
2018-07-02T07:56:30.679Z,119840.00
2018-07-02T07:57:33.611Z,120128.00
2018-07-02T07:58:33.039Z,120768.00
2018-07-02T07:59:33.127Z,119808.00
2018-07-02T08:00:32.828Z,119744.00
2018-07-02T08:01:34.964Z,120256.00
2018-07-02T08:02:32.164Z,120608.00
2018-07-02T08:03:32.055Z,117984.00
2018-07-02T08:04:32.225Z,118752.00
2018-07-02T08:05:32.915Z,118176.00
2018-07-02T08:06:32.627Z,117152.00
2018-07-02T08:07:32.829Z,114944.00
2018-07-02T08:08:33.040Z,114464.00
2018-07-02T08:09:33.212Z,114368.00
2018-07-02T08:10:33.418Z,113472.00
2018-07-02T08:11:33.598Z,113760.00
2018-07-02T08:12:33.794Z,115104.00
2018-07-02T08:13:33.980Z,119776.00
2018-07-02T08:14:34.165Z,120032.00
2018-07-02T08:15:34.360Z,119776.00
2018-07-02T08:16:34.547Z,117984.00
2018-07-02T08:17:34.742Z,117472.00
2018-07-02T08:18:34.943Z,116992.00
2018-07-02T08:19:37.080Z,119168.00
2018-07-02T08:20:36.502Z,113824.00
2018-07-02T08:21:35.794Z,109696.00
2018-07-02T08:22:35.809Z,112416.00
2018-07-02T08:23:35.757Z,112736.00
2018-07-02T08:24:36.061Z,112576.00
2018-07-02T08:25:36.090Z,112000.00
2018-07-02T08:26:36.293Z,111584.00
2018-07-02T08:27:36.479Z,113024.00
2018-07-02T08:28:36.671Z,110720.00
2018-07-02T08:29:36.866Z,107520.00
2018-07-02T08:30:37.072Z,108672.00
2018-07-02T08:31:37.272Z,110208.00
2018-07-02T08:32:37.462Z,111360.00
2018-07-02T08:33:37.672Z,108416.00
2018-07-02T08:34:37.891Z,102752.00
2018-07-02T08:35:38.114Z,102464.00
2018-07-02T08:36:38.315Z,107456.00
2018-07-02T08:37:38.615Z,108480.00
2018-07-02T08:38:38.684Z,109120.00
2018-07-02T08:39:38.964Z,109472.00
2018-07-02T08:40:39.093Z,105824.00
2018-07-02T08:41:39.329Z,97056.00
2018-07-02T08:42:39.509Z,85856.00
2018-07-02T08:43:39.764Z,64736.00
2018-07-02T08:44:39.951Z,46848.00
2018-07-02T08:45:40.233Z,35872.00
2018-07-02T08:46:40.326Z,32832.00
2018-07-02T08:47:40.492Z,32320.00
2018-07-02T08:48:40.699Z,31840.00
2018-07-02T08:49:40.894Z,31744.00
2018-07-02T08:50:41.109Z,31296.00
2018-07-02T08:51:41.326Z,31168.00
2018-07-02T08:52:41.548Z,30944.00
2018-07-02T08:53:41.724Z,30752.00
2018-07-02T08:54:41.919Z,30368.00
2018-07-02T08:55:42.122Z,30496.00
2018-07-02T08:56:42.308Z,30368.00
2018-07-02T08:57:42.512Z,29824.00
2018-07-02T08:58:42.705Z,29792.00
2018-07-02T08:59:42.903Z,29984.00
2018-07-02T09:00:43.097Z,29888.00
2018-07-02T09:01:43.292Z,29568.00
2018-07-02T09:02:43.478Z,29376.00
2018-07-02T09:03:43.670Z,29472.00
2018-07-02T09:04:43.862Z,29344.00
2018-07-02T09:05:44.056Z,29056.00
2018-07-02T09:06:44.286Z,29184.00
2018-07-02T09:07:44.444Z,29280.00
2018-07-02T09:08:44.642Z,29088.00
2018-07-02T09:09:44.878Z,29472.00
2018-07-02T09:10:45.032Z,29344.00
2018-07-02T09:11:45.209Z,29472.00
2018-07-02T09:12:45.397Z,29696.00
2018-07-02T09:13:45.597Z,30080.00
2018-07-02T09:14:45.813Z,30464.00
2018-07-02T09:15:45.981Z,31168.00
2018-07-02T09:16:46.177Z,33312.00
2018-07-02T09:17:46.424Z,35392.00
2018-07-02T09:18:46.554Z,37504.00
2018-07-02T09:19:46.748Z,38528.00
2018-07-02T09:20:46.963Z,39520.00
2018-07-02T09:21:47.133Z,43360.00
2018-07-02T09:22:47.325Z,52800.00
2018-07-02T09:23:47.574Z,66112.00
2018-07-02T09:24:47.736Z,82496.00
2018-07-02T09:25:47.960Z,97120.00
2018-07-02T09:26:48.337Z,107200.00
2018-07-02T09:27:48.351Z,106752.00
2018-07-02T09:28:48.542Z,96544.00
2018-07-02T09:29:48.980Z,91168.00
2018-07-02T09:30:48.961Z,90656.00
2018-07-02T09:31:49.272Z,83808.00
2018-07-02T09:32:49.339Z,68512.00
2018-07-02T09:33:49.567Z,55520.00
2018-07-02T09:34:49.800Z,49792.00
2018-07-02T09:35:49.989Z,49920.00
2018-07-02T09:36:50.185Z,52448.00
2018-07-02T09:37:50.667Z,53248.00
2018-07-02T09:38:50.581Z,50240.00
2018-07-02T09:39:50.771Z,45248.00
2018-07-02T09:40:50.962Z,43136.00
2018-07-02T09:41:51.148Z,43840.00
2018-07-02T09:42:51.343Z,43296.00
2018-07-02T09:43:51.540Z,43392.00
2018-07-02T09:44:51.764Z,44256.00
2018-07-02T09:45:51.953Z,43232.00
2018-07-02T09:46:53.355Z,41152.00
2018-07-02T09:47:54.269Z,40448.00
2018-07-02T09:48:54.812Z,41120.00
2018-07-02T09:49:54.291Z,40064.00
2018-07-02T09:50:53.461Z,39904.00
2018-07-02T09:51:54.451Z,38528.00
2018-07-02T09:52:54.962Z,38080.00
2018-07-02T09:53:55.364Z,38368.00
2018-07-02T09:54:59.571Z,39008.00
2018-07-02T09:55:56.146Z,36160.00
2018-07-02T09:56:54.381Z,26336.00
2018-07-02T09:57:57.538Z,14604.00
2018-07-02T09:58:55.606Z,9800.00
2018-07-02T09:59:56.551Z,8560.00
2018-07-02T10:00:54.582Z,8208.00
2018-07-02T10:01:54.781Z,8036.00
2018-07-02T10:02:54.971Z,7940.00
2018-07-02T10:03:55.160Z,7856.00
2018-07-02T10:04:55.351Z,7808.00
2018-07-02T10:05:55.551Z,7728.00
2018-07-02T10:06:55.752Z,7680.00
2018-07-02T10:07:55.959Z,7636.00
2018-07-02T10:08:56.161Z,7592.00
2018-07-02T10:09:56.328Z,7544.00
2018-07-02T10:10:56.517Z,7500.00
2018-07-02T10:11:56.899Z,7432.00
2018-07-02T10:12:56.910Z,7284.00
2018-07-02T10:13:57.092Z,7136.00
2018-07-02T10:14:57.289Z,6972.00
2018-07-02T10:15:57.470Z,6744.00
2018-07-02T10:16:57.664Z,6532.00
2018-07-02T10:17:57.853Z,6284.00
2018-07-02T10:18:58.036Z,6028.00
2018-07-02T10:19:58.217Z,5768.00
2018-07-02T10:20:58.404Z,5496.00
2018-07-02T10:21:58.590Z,5212.00
2018-07-02T10:22:58.778Z,4920.00
2018-07-02T10:23:59.008Z,4616.00
2018-07-02T10:24:59.158Z,4308.00
2018-07-02T10:25:59.421Z,4012.00
2018-07-02T10:26:59.535Z,3716.00
2018-07-02T10:27:59.738Z,3452.00
2018-07-02T10:28:59.934Z,3276.00
2018-07-02T10:30:00.120Z,3192.00
2018-07-02T10:31:00.339Z,3164.00
2018-07-02T10:32:00.490Z,3152.00
2018-07-02T10:33:00.676Z,3140.00
2018-07-02T10:34:00.867Z,3128.00
2018-07-02T10:35:01.060Z,3116.00
2018-07-02T10:36:01.241Z,3104.00
2018-07-02T10:37:01.424Z,3088.00
2018-07-02T10:38:01.607Z,3084.00
2018-07-02T10:39:01.827Z,3072.00
2018-07-02T10:40:02.260Z,3068.00
2018-07-02T10:41:02.148Z,3056.00
2018-07-02T10:42:02.335Z,3040.00
2018-07-02T10:43:02.517Z,3032.00
2018-07-02T10:44:02.710Z,3016.00
2018-07-02T10:45:02.899Z,3004.00
2018-07-02T10:46:03.149Z,2992.00
2018-07-02T10:47:03.225Z,2988.00
2018-07-02T10:48:03.409Z,2972.00
2018-07-02T10:49:03.611Z,2964.00
2018-07-02T10:50:03.789Z,2960.00
2018-07-02T10:51:03.982Z,2960.00
2018-07-02T10:52:04.175Z,2952.00
2018-07-02T10:53:04.362Z,2936.00
2018-07-02T10:54:04.573Z,2920.00
2018-07-02T10:55:04.756Z,2920.00
2018-07-02T10:56:04.940Z,2908.00
2018-07-02T10:57:05.121Z,2904.00
2018-07-02T10:58:05.301Z,2900.00
2018-07-02T10:59:05.483Z,2884.00
2018-07-02T11:00:05.662Z,2868.00
2018-07-02T11:01:05.855Z,2860.00
2018-07-02T11:02:06.054Z,2900.00
2018-07-02T11:03:08.074Z,2888.00
2018-07-02T11:04:07.272Z,2900.00
2018-07-02T11:05:06.530Z,2828.00
2018-07-02T11:06:07.148Z,2820.00
2018-07-02T11:07:09.016Z,2844.00
2018-07-02T11:08:08.827Z,2812.00
2018-07-02T11:09:08.796Z,2796.00
2018-07-02T11:10:09.520Z,2780.00
2018-07-02T11:11:08.902Z,2772.00
2018-07-02T11:12:11.159Z,2768.00
2018-07-02T11:13:10.742Z,2768.00
2018-07-02T11:14:12.174Z,2736.00
2018-07-02T11:15:09.144Z,2724.00
2018-07-02T11:16:11.313Z,2704.00
2018-07-02T11:17:10.554Z,2692.00
2018-07-02T11:18:10.909Z,2680.00
2018-07-02T11:19:10.830Z,2672.00
2018-07-02T11:20:09.406Z,2668.00
2018-07-02T11:21:09.696Z,2648.00
2018-07-02T11:22:09.870Z,2636.00
2018-07-02T11:23:10.169Z,2628.00
2018-07-02T11:24:09.984Z,2620.00
2018-07-02T11:25:10.171Z,2600.00
2018-07-02T11:26:10.358Z,2588.00
2018-07-02T11:27:10.553Z,2580.00
2018-07-02T11:28:10.996Z,2576.00
2018-07-02T11:29:10.975Z,2552.00
2018-07-02T11:30:11.042Z,2540.00
2018-07-02T11:31:11.230Z,2532.00
2018-07-02T11:32:11.414Z,2516.00
2018-07-02T11:33:11.610Z,2500.00
2018-07-02T11:34:12.499Z,2484.00
2018-07-02T11:35:11.941Z,2476.00
2018-07-02T11:36:12.136Z,2468.00
2018-07-02T11:37:12.329Z,2460.00
2018-07-02T11:38:12.510Z,2448.00
2018-07-02T11:39:12.697Z,2436.00
2018-07-02T11:40:13.097Z,2428.00
2018-07-02T11:41:13.656Z,2412.00
2018-07-02T11:42:14.776Z,2408.00
2018-07-02T11:43:13.724Z,2396.00
2018-07-02T11:44:13.643Z,2384.00
2018-07-02T11:45:14.116Z,2376.00
2018-07-02T11:46:13.819Z,2372.00
2018-07-02T11:47:14.003Z,2364.00
2018-07-02T11:48:14.252Z,2348.00
2018-07-02T11:49:14.410Z,2344.00
2018-07-02T11:50:14.605Z,2336.00
2018-07-02T11:51:14.793Z,2328.00
2018-07-02T11:52:14.984Z,2324.00
2018-07-02T11:53:15.169Z,2308.00
2018-07-02T11:54:15.360Z,2304.00
2018-07-02T11:55:15.545Z,2292.00
2018-07-02T11:56:15.735Z,2288.00
2018-07-02T11:57:15.929Z,2260.00
2018-07-02T11:58:16.108Z,2252.00
2018-07-02T11:59:16.321Z,2244.00
2018-07-02T12:00:16.501Z,2240.00
2018-07-02T12:01:16.692Z,2232.00
2018-07-02T12:02:16.883Z,2216.00
2018-07-02T12:03:17.077Z,2212.00
2018-07-02T12:04:17.284Z,2180.00
2018-07-02T12:05:17.447Z,2164.00
2018-07-02T12:06:17.641Z,2148.00
2018-07-02T12:07:17.825Z,2132.00
2018-07-02T12:08:18.007Z,2120.00
2018-07-02T12:09:18.196Z,2104.00
2018-07-02T12:10:19.331Z,2092.00
2018-07-02T12:11:18.526Z,2084.00
2018-07-02T12:12:21.909Z,2072.00
2018-07-02T12:13:21.640Z,2056.00
2018-07-02T12:14:21.744Z,2044.00
2018-07-02T12:15:20.139Z,2032.00